createdAt,value
2022-12-31T00:02:11.457Z,99745.16
2022-12-31T00:04:37.822Z,99763.16
2022-12-31T00:07:04.179Z,99718.25
2022-12-31T00:09:30.615Z,99779.25
2022-12-31T00:11:56.918Z,99733.09
2022-12-31T00:14:23.247Z,99764.22
2022-12-31T00:16:49.673Z,99740.88
2022-12-31T00:19:16.024Z,99717.28
2022-12-31T00:21:43.482Z,99756.53
2022-12-31T00:24:11.484Z,99757.38
2022-12-31T00:26:38.658Z,99740.41
2022-12-31T00:29:05.859Z,99763.03
2022-12-31T00:31:36.992Z,99760.09
2022-12-31T00:34:04.956Z,99751.41
2022-12-31T00:36:36.559Z,99745.50
2022-12-31T00:39:05.355Z,99713.50
2022-12-31T00:41:32.192Z,99710.78
2022-12-31T00:43:59.230Z,99728.78
2022-12-31T00:46:26.064Z,99724.59
2022-12-31T00:48:52.874Z,99717.94
2022-12-31T00:51:22.052Z,99712.66
2022-12-31T00:53:48.498Z,99705.72
2022-12-31T00:56:18.267Z,99716.88
2022-12-31T00:58:45.029Z,99687.97
2022-12-31T01:01:15.106Z,99717.03
2022-12-31T01:03:42.107Z,99705.16
2022-12-31T01:06:08.977Z,99707.69
2022-12-31T01:08:35.433Z,99701.66
2022-12-31T01:11:22.019Z,99700.91
2022-12-31T01:13:55.385Z,99697.44
2022-12-31T01:16:25.811Z,99695.28
2022-12-31T01:18:52.613Z,99684.44
2022-12-31T01:21:19.378Z,99711.88
2022-12-31T01:23:46.128Z,99709.78
2022-12-31T01:26:14.635Z,99666.69
2022-12-31T01:28:41.043Z,99697.69
2022-12-31T01:31:11.109Z,99730.44
2022-12-31T01:33:38.236Z,99685.53
2022-12-31T01:36:07.389Z,99701.19
2022-12-31T01:38:35.028Z,99739.38
2022-12-31T01:41:04.628Z,99700.97
2022-12-31T01:43:51.340Z,99718.03
2022-12-31T01:46:27.115Z,99701.34
2022-12-31T01:48:57.872Z,99675.69
2022-12-31T01:51:27.621Z,99672.13
2022-12-31T01:53:55.003Z,99657.66
2022-12-31T01:56:23.088Z,99692.19
2022-12-31T01:58:53.400Z,99700.06
2022-12-31T02:01:26.190Z,99709.38
2022-12-31T02:03:53.744Z,99711.75
2022-12-31T02:06:33.353Z,99702.25
2022-12-31T02:09:00.578Z,99591.06
2022-12-31T02:11:31.088Z,99703.78
2022-12-31T02:14:01.302Z,99707.19
2022-12-31T02:16:51.441Z,99719.09
2022-12-31T02:19:23.856Z,99721.88
2022-12-31T02:22:13.377Z,99732.84
2022-12-31T02:25:17.419Z,99725.53
2022-12-31T02:27:49.694Z,99740.78
2022-12-31T02:30:22.163Z,99718.75
2022-12-31T02:33:31.654Z,99724.19
2022-12-31T02:36:02.119Z,99725.38
2022-12-31T02:38:33.813Z,99707.66
2022-12-31T02:41:00.373Z,99707.66
2022-12-31T02:43:27.026Z,99688.88
2022-12-31T02:46:15.394Z,99743.06
2022-12-31T02:48:49.109Z,99766.88
2022-12-31T02:51:39.592Z,99743.25
2022-12-31T02:54:17.955Z,99671.66
2022-12-31T02:56:54.169Z,99746.13
2022-12-31T02:59:46.393Z,99754.47
2022-12-31T03:02:19.275Z,99742.22
2022-12-31T03:04:53.925Z,99742.38
2022-12-31T03:07:23.397Z,99737.41
2022-12-31T03:09:50.428Z,99774.28
2022-12-31T03:12:36.926Z,99770.44
2022-12-31T03:15:06.732Z,99745.13
2022-12-31T03:17:34.151Z,99768.16
2022-12-31T03:20:19.231Z,99785.06
2022-12-31T03:22:45.708Z,99786.59
2022-12-31T03:25:37.968Z,99778.31
2022-12-31T03:28:10.191Z,99744.56
2022-12-31T03:30:38.805Z,99712.19
2022-12-31T03:33:07.112Z,99743.41
2022-12-31T03:35:35.696Z,99781.94
2022-12-31T03:38:02.758Z,99786.72
2022-12-31T03:40:30.585Z,99759.28
2022-12-31T03:42:57.057Z,99778.81
2022-12-31T03:45:24.068Z,99747.97
2022-12-31T03:47:50.406Z,99756.19
2022-12-31T03:50:18.592Z,99763.16
2022-12-31T03:52:45.154Z,99745.28
2022-12-31T03:55:12.767Z,99776.78
2022-12-31T03:57:39.464Z,99786.13
2022-12-31T04:00:08.288Z,99753.00
2022-12-31T04:02:34.757Z,99768.06
2022-12-31T04:05:01.196Z,99769.41
2022-12-31T04:07:27.747Z,99752.59
2022-12-31T04:09:54.090Z,99741.19
2022-12-31T04:12:20.447Z,99710.75
2022-12-31T04:14:46.837Z,99667.72
2022-12-31T04:17:13.206Z,99752.59
2022-12-31T04:19:39.622Z,99750.75
2022-12-31T04:22:06.050Z,99751.16
2022-12-31T04:24:32.399Z,99733.47
2022-12-31T04:27:03.743Z,99767.34
2022-12-31T04:29:33.546Z,99768.59
2022-12-31T04:32:00.023Z,99783.34
2022-12-31T04:34:26.472Z,99758.69
2022-12-31T04:36:53.047Z,99780.63
2022-12-31T04:39:19.361Z,99740.81
2022-12-31T04:41:45.742Z,99778.47
2022-12-31T04:44:12.247Z,99749.16
2022-12-31T04:46:38.632Z,99755.69
2022-12-31T04:49:05.169Z,99759.31
2022-12-31T04:51:32.049Z,99754.69
2022-12-31T04:53:58.767Z,99764.19
2022-12-31T04:56:26.304Z,99778.78
2022-12-31T04:58:52.797Z,99795.06
2022-12-31T05:01:21.076Z,99787.19
2022-12-31T05:03:47.984Z,99790.47
2022-12-31T05:06:20.480Z,99750.97
2022-12-31T05:08:47.190Z,99769.88
2022-12-31T05:11:13.634Z,99720.28
2022-12-31T05:13:40.102Z,99784.69
2022-12-31T05:16:07.306Z,99779.03
2022-12-31T05:18:33.825Z,99791.47
2022-12-31T05:21:00.133Z,99758.91
2022-12-31T05:23:26.851Z,99803.56
2022-12-31T05:25:53.462Z,99791.91
2022-12-31T05:28:20.256Z,99792.47
2022-12-31T05:30:51.067Z,99795.78
2022-12-31T05:33:18.545Z,99789.00
2022-12-31T05:35:45.882Z,99812.38
2022-12-31T05:38:12.298Z,99785.13
2022-12-31T05:40:38.654Z,99757.75
2022-12-31T05:43:05.034Z,99793.06
2022-12-31T05:45:31.604Z,99747.28
2022-12-31T05:47:58.054Z,99753.66
2022-12-31T05:50:24.414Z,99798.28
2022-12-31T05:52:50.782Z,99791.00
2022-12-31T05:55:17.300Z,99746.75
2022-12-31T05:57:43.673Z,99794.84
2022-12-31T06:00:10.947Z,99819.16
2022-12-31T06:02:37.374Z,99818.16
2022-12-31T06:05:04.735Z,99806.75
2022-12-31T06:07:31.061Z,99822.03
2022-12-31T06:09:57.392Z,99800.00
2022-12-31T06:12:23.738Z,99820.72
2022-12-31T06:14:50.108Z,99812.59
2022-12-31T06:17:16.516Z,99825.84
2022-12-31T06:19:42.896Z,99837.06
2022-12-31T06:22:09.245Z,99861.53
2022-12-31T06:24:35.594Z,99796.00
2022-12-31T06:27:01.916Z,99863.78
2022-12-31T06:29:28.263Z,99870.25
2022-12-31T06:31:54.594Z,99821.94
2022-12-31T06:34:20.932Z,99848.75
2022-12-31T06:36:47.273Z,99802.94
2022-12-31T06:39:13.638Z,99858.50
2022-12-31T06:41:40.004Z,99862.13
2022-12-31T06:44:06.424Z,99830.06
2022-12-31T06:46:32.968Z,99855.22
2022-12-31T06:48:59.315Z,99868.25
2022-12-31T06:51:25.642Z,99869.78
2022-12-31T06:53:52.318Z,99869.94
2022-12-31T06:56:26.480Z,99887.19
2022-12-31T06:58:56.324Z,99860.13
2022-12-31T07:01:46.885Z,99890.97
2022-12-31T07:04:50.386Z,99872.53
2022-12-31T07:07:43.967Z,99894.91
2022-12-31T07:10:39.615Z,99897.88
2022-12-31T07:13:24.748Z,99876.44
2022-12-31T07:16:18.157Z,99884.97
2022-12-31T07:19:06.574Z,99871.00
2022-12-31T07:21:39.240Z,99875.22
2022-12-31T07:24:07.330Z,99902.66
2022-12-31T07:26:56.794Z,99887.72
2022-12-31T07:29:26.313Z,99902.88
2022-12-31T07:32:04.652Z,99896.63
2022-12-31T07:34:30.948Z,99882.09
2022-12-31T07:37:12.946Z,99894.06
2022-12-31T07:39:46.358Z,99901.00
2022-12-31T07:42:32.789Z,99888.84
2022-12-31T07:45:14.347Z,99921.75
2022-12-31T07:47:40.990Z,99866.94
2022-12-31T07:50:14.477Z,99921.75
2022-12-31T07:52:43.770Z,99877.94
2022-12-31T07:55:10.934Z,99923.03
2022-12-31T07:58:00.985Z,99947.75
2022-12-31T08:00:31.134Z,99873.66
2022-12-31T08:03:00.237Z,99935.19
2022-12-31T08:06:14.941Z,99905.63
2022-12-31T08:08:59.735Z,99924.03
2022-12-31T08:11:37.810Z,99923.13
2022-12-31T08:14:08.730Z,99864.28
2022-12-31T08:16:35.369Z,99828.25
2022-12-31T08:19:02.023Z,99904.00
2022-12-31T08:22:12.942Z,99880.63
2022-12-31T08:25:13.635Z,99918.22
2022-12-31T08:28:12.882Z,99895.91
2022-12-31T08:30:53.620Z,99891.03
2022-12-31T08:33:34.832Z,99919.47
2022-12-31T08:36:29.267Z,99961.91
2022-12-31T08:39:32.099Z,99924.84
2022-12-31T08:42:00.155Z,99932.19
2022-12-31T08:44:51.408Z,99952.69
2022-12-31T08:47:34.148Z,99956.00
2022-12-31T08:50:04.374Z,99958.84
2022-12-31T08:52:31.011Z,99894.56
2022-12-31T08:54:57.614Z,99938.00
2022-12-31T08:57:39.966Z,99969.16
2022-12-31T09:00:13.706Z,99982.91
2022-12-31T09:03:29.873Z,99997.59
2022-12-31T09:06:28.510Z,100018.94
2022-12-31T09:09:10.498Z,99953.56
2022-12-31T09:11:58.656Z,100010.59
2022-12-31T09:14:38.971Z,99886.44
2022-12-31T09:17:49.975Z,100031.47
2022-12-31T09:20:26.196Z,100026.44
2022-12-31T09:22:54.159Z,100042.28
2022-12-31T09:25:22.164Z,100058.34
2022-12-31T09:27:51.409Z,100057.56
2022-12-31T09:30:18.733Z,100021.16
2022-12-31T09:33:03.905Z,100053.69
2022-12-31T09:35:52.474Z,100075.34
2022-12-31T09:38:37.317Z,100023.25
2022-12-31T09:41:15.944Z,100009.22
2022-12-31T09:44:16.669Z,100038.88
2022-12-31T09:47:13.950Z,100083.53
2022-12-31T09:49:52.282Z,100119.66
2022-12-31T09:52:27.797Z,100105.66
2022-12-31T09:55:00.580Z,100101.31
2022-12-31T09:57:40.572Z,100126.97
2022-12-31T10:00:21.257Z,100119.75
2022-12-31T10:02:55.856Z,100090.03
2022-12-31T10:05:30.200Z,100018.44
2022-12-31T10:08:04.151Z,100142.91
2022-12-31T10:10:38.631Z,100101.91
2022-12-31T10:13:25.654Z,100124.75
2022-12-31T10:16:10.445Z,100109.38
2022-12-31T10:19:13.326Z,100109.22
2022-12-31T10:21:57.849Z,100120.50
2022-12-31T10:24:39.542Z,100138.69
2022-12-31T10:27:32.439Z,100120.03
2022-12-31T10:30:11.787Z,100144.63
2022-12-31T10:33:10.408Z,100117.22
2022-12-31T10:36:08.028Z,100147.28
2022-12-31T10:39:05.059Z,100126.41
2022-12-31T10:42:12.709Z,100119.34
2022-12-31T10:44:57.432Z,100126.34
2022-12-31T10:47:42.527Z,100123.38
2022-12-31T10:50:46.612Z,100126.75
2022-12-31T10:53:37.765Z,100143.56
2022-12-31T10:56:30.822Z,100109.88
2022-12-31T10:59:17.419Z,100109.09
2022-12-31T11:02:08.325Z,100125.31
2022-12-31T11:04:40.858Z,100124.75
2022-12-31T11:07:45.278Z,100132.03
2022-12-31T11:10:43.644Z,100102.28
2022-12-31T11:13:36.697Z,100114.66
2022-12-31T11:16:13.524Z,100114.25
2022-12-31T11:19:02.111Z,100116.13
2022-12-31T11:21:46.894Z,100141.69
2022-12-31T11:24:28.620Z,100128.03
2022-12-31T11:27:05.186Z,100085.66
2022-12-31T11:30:01.237Z,100146.13
2022-12-31T11:32:48.316Z,100155.81
2022-12-31T11:35:22.834Z,100048.88
2022-12-31T11:38:24.332Z,100112.66
2022-12-31T11:41:00.683Z,100140.19
2022-12-31T11:43:43.882Z,100139.03
2022-12-31T11:46:26.313Z,100150.06
2022-12-31T11:49:01.131Z,100150.03
2022-12-31T11:51:46.929Z,100148.88
2022-12-31T11:54:58.777Z,100146.03
2022-12-31T11:57:32.429Z,100153.38
2022-12-31T12:00:04.428Z,100069.09
2022-12-31T12:02:37.009Z,100138.44
2022-12-31T12:05:10.656Z,100135.16
2022-12-31T12:07:37.559Z,100129.63
2022-12-31T12:10:17.630Z,100132.19
2022-12-31T12:12:44.136Z,100176.91
2022-12-31T12:15:17.922Z,100101.22
2022-12-31T12:17:49.173Z,100149.16
2022-12-31T12:20:19.962Z,100050.56
2022-12-31T12:22:56.463Z,100155.25
2022-12-31T12:25:25.914Z,100139.22
2022-12-31T12:27:53.963Z,100162.50
2022-12-31T12:30:26.907Z,99955.66
2022-12-31T12:32:55.677Z,100190.56
2022-12-31T12:35:34.090Z,100063.81
2022-12-31T12:38:00.511Z,100134.06
2022-12-31T12:40:33.836Z,100152.41
2022-12-31T12:43:01.838Z,100150.44
2022-12-31T12:45:49.169Z,100124.47
2022-12-31T12:48:45.876Z,100142.38
2022-12-31T12:51:32.312Z,100119.88
2022-12-31T12:54:08.248Z,100175.09
2022-12-31T12:56:57.980Z,100171.22
2022-12-31T12:59:39.612Z,100198.91
2022-12-31T13:02:21.332Z,100186.03
2022-12-31T13:05:21.682Z,100192.16
2022-12-31T13:08:14.370Z,100186.88
2022-12-31T13:10:59.545Z,100180.22
2022-12-31T13:13:54.292Z,100189.34
2022-12-31T13:16:39.830Z,100167.22
2022-12-31T13:19:42.595Z,100187.81
2022-12-31T13:22:29.905Z,100199.66
2022-12-31T13:25:02.373Z,100195.34
2022-12-31T13:27:40.549Z,100059.81
2022-12-31T13:30:25.399Z,100168.78
2022-12-31T13:33:16.221Z,100190.69
2022-12-31T13:35:45.354Z,100152.91
2022-12-31T13:38:23.342Z,100161.03
2022-12-31T13:40:58.150Z,100153.16
2022-12-31T13:43:51.088Z,100168.50
2022-12-31T13:46:34.833Z,100175.38
2022-12-31T13:49:04.860Z,100158.28
2022-12-31T13:51:44.400Z,100185.41
2022-12-31T13:54:38.669Z,100159.69
2022-12-31T13:57:15.106Z,100189.53
2022-12-31T13:59:44.963Z,100088.47
2022-12-31T14:02:36.943Z,100148.91
2022-12-31T14:05:17.452Z,100163.03
2022-12-31T14:07:52.520Z,100027.97
2022-12-31T14:10:28.589Z,100138.69
2022-12-31T14:13:07.094Z,100150.97
2022-12-31T14:15:56.046Z,100146.59
2022-12-31T14:18:36.395Z,100123.56
2022-12-31T14:21:20.805Z,100151.34
2022-12-31T14:23:54.502Z,100124.91
2022-12-31T14:26:30.855Z,100139.94
2022-12-31T14:29:33.825Z,100128.31
2022-12-31T14:32:11.481Z,100107.47
2022-12-31T14:35:09.200Z,100080.28
2022-12-31T14:38:03.607Z,100157.16
2022-12-31T14:40:54.644Z,100170.97
2022-12-31T14:43:39.747Z,100161.75
2022-12-31T14:46:25.489Z,100155.66
2022-12-31T14:49:29.334Z,100179.78
2022-12-31T14:51:55.677Z,100156.66
2022-12-31T14:54:35.408Z,100097.63
2022-12-31T14:57:16.974Z,100183.28
2022-12-31T14:59:57.923Z,100161.44
2022-12-31T15:02:32.869Z,100183.28
2022-12-31T15:05:10.619Z,100201.53
2022-12-31T15:08:03.235Z,100191.97
2022-12-31T15:10:48.747Z,100193.19
2022-12-31T15:14:00.274Z,100188.06
2022-12-31T15:17:04.044Z,100158.19
2022-12-31T15:20:07.963Z,100200.84
2022-12-31T15:22:46.092Z,100090.97
2022-12-31T15:25:24.622Z,100195.66
2022-12-31T15:27:51.589Z,100183.59
2022-12-31T15:30:33.916Z,100189.75
2022-12-31T15:33:04.381Z,100167.41
2022-12-31T15:35:43.891Z,100196.75
2022-12-31T15:38:10.154Z,100203.94
2022-12-31T15:40:51.631Z,100203.09
2022-12-31T15:43:23.908Z,100199.31
2022-12-31T15:45:53.944Z,100189.09
2022-12-31T15:48:27.263Z,100174.94
2022-12-31T15:50:57.952Z,100175.50
2022-12-31T15:53:39.591Z,100197.97
2022-12-31T15:56:07.793Z,100203.41
2022-12-31T15:58:36.969Z,100184.91
2022-12-31T16:01:21.939Z,100177.16
2022-12-31T16:04:00.459Z,100187.72
2022-12-31T16:06:30.270Z,100191.31
2022-12-31T16:08:57.527Z,100168.94
2022-12-31T16:11:24.674Z,100165.53
2022-12-31T16:13:54.729Z,100157.00
2022-12-31T16:16:22.688Z,100206.31
2022-12-31T16:18:50.186Z,100143.13
2022-12-31T16:21:34.443Z,100188.13
2022-12-31T16:25:19.888Z,100205.28
2022-12-31T16:27:38.059Z,100142.34
2022-12-31T16:30:08.407Z,100185.69
2022-12-31T16:32:39.870Z,100166.75
2022-12-31T16:35:23.611Z,100144.13
2022-12-31T16:38:09.600Z,100198.47
2022-12-31T16:40:35.980Z,100162.81
2022-12-31T16:43:02.388Z,100185.84
2022-12-31T16:45:35.233Z,100175.59
2022-12-31T16:48:16.957Z,100173.13
2022-12-31T16:50:50.845Z,100195.88
2022-12-31T16:53:22.153Z,100200.47
2022-12-31T16:55:55.767Z,100176.44
2022-12-31T16:58:28.467Z,100171.41
2022-12-31T17:00:59.692Z,100201.84
2022-12-31T17:03:28.784Z,100173.63
2022-12-31T17:05:56.984Z,100163.53
2022-12-31T17:08:37.902Z,100199.09
2022-12-31T17:11:04.582Z,100192.22
2022-12-31T17:13:34.737Z,100106.25
2022-12-31T17:16:01.791Z,100163.06
2022-12-31T17:18:36.953Z,100136.97
2022-12-31T17:21:10.727Z,100152.28
2022-12-31T17:23:39.538Z,100121.53
2022-12-31T17:26:12.945Z,100147.97
2022-12-31T17:28:47.963Z,100172.81
2022-12-31T17:31:28.617Z,100153.88
2022-12-31T17:34:14.310Z,100175.44
2022-12-31T17:36:51.203Z,100146.25
2022-12-31T17:39:20.453Z,100159.34
2022-12-31T17:41:49.385Z,100136.31
2022-12-31T17:44:22.640Z,100156.81
2022-12-31T17:46:50.101Z,100179.00
2022-12-31T17:49:17.137Z,100147.59
2022-12-31T17:51:47.554Z,100148.88
2022-12-31T17:54:15.475Z,100140.97
2022-12-31T17:56:42.948Z,100148.59
2022-12-31T17:59:15.886Z,100160.47
2022-12-31T18:01:42.447Z,100102.56
2022-12-31T18:04:13.034Z,100178.72
2022-12-31T18:06:39.455Z,100116.31
2022-12-31T18:09:05.868Z,100137.09
2022-12-31T18:11:32.332Z,100123.13
2022-12-31T18:13:58.921Z,100144.38
2022-12-31T18:16:25.307Z,100129.81
2022-12-31T18:18:51.688Z,100157.59
2022-12-31T18:21:24.741Z,100115.56
2022-12-31T18:23:51.317Z,100120.47
2022-12-31T18:26:23.026Z,100127.41
2022-12-31T18:28:50.302Z,100149.16
2022-12-31T18:31:20.603Z,100092.03
2022-12-31T18:33:47.780Z,100142.00
2022-12-31T18:36:16.395Z,100079.38
2022-12-31T18:38:43.163Z,100048.50
2022-12-31T18:41:26.806Z,100136.88
2022-12-31T18:43:53.549Z,100092.84
2022-12-31T18:46:22.521Z,100132.38
2022-12-31T18:48:49.188Z,100063.50
2022-12-31T18:51:18.785Z,100004.97
2022-12-31T18:53:45.290Z,100132.69
2022-12-31T18:56:19.728Z,100110.25
2022-12-31T18:58:46.685Z,100136.72
2022-12-31T19:01:27.928Z,100132.59
2022-12-31T19:03:56.516Z,100117.00
2022-12-31T19:06:23.366Z,100124.78
2022-12-31T19:08:50.387Z,100082.31
2022-12-31T19:11:17.287Z,100136.19
2022-12-31T19:13:43.693Z,100125.28
2022-12-31T19:16:10.490Z,100147.78
2022-12-31T19:18:37.044Z,100126.16
2022-12-31T19:21:03.568Z,100169.38
2022-12-31T19:23:29.884Z,100138.91
2022-12-31T19:25:56.270Z,100139.28
2022-12-31T19:28:24.820Z,100151.22
2022-12-31T19:30:52.151Z,100126.75
2022-12-31T19:33:19.011Z,100166.31
2022-12-31T19:35:46.015Z,100162.81
2022-12-31T19:38:24.293Z,100152.75
2022-12-31T19:40:51.903Z,100169.97
2022-12-31T19:43:20.767Z,100152.19
2022-12-31T19:45:48.168Z,100142.84
2022-12-31T19:48:17.362Z,100166.72
2022-12-31T19:50:47.267Z,100190.91
2022-12-31T19:53:16.560Z,100143.88
2022-12-31T19:55:43.091Z,100201.34
2022-12-31T19:58:18.006Z,100185.84
2022-12-31T20:00:49.663Z,100175.44
2022-12-31T20:03:20.258Z,100170.06
2022-12-31T20:05:46.842Z,100177.53
2022-12-31T20:08:14.469Z,100211.91
2022-12-31T20:10:41.113Z,100193.16
2022-12-31T20:13:07.567Z,100145.91
2022-12-31T20:15:34.004Z,100221.50
2022-12-31T20:18:00.503Z,100193.84
2022-12-31T20:20:29.077Z,100214.06
2022-12-31T20:22:57.416Z,100219.25
2022-12-31T20:25:25.010Z,100237.75
2022-12-31T20:27:55.323Z,100187.41
2022-12-31T20:30:22.956Z,100227.28
2022-12-31T20:32:51.964Z,100220.00
2022-12-31T20:35:19.357Z,100213.97
2022-12-31T20:37:46.018Z,100198.59
2022-12-31T20:40:12.896Z,100221.28
2022-12-31T20:42:40.580Z,100209.97
2022-12-31T20:45:10.785Z,100216.31
2022-12-31T20:47:37.472Z,100205.72
2022-12-31T20:50:12.724Z,100225.34
2022-12-31T20:52:39.596Z,100271.44
2022-12-31T20:55:06.539Z,100247.41
2022-12-31T20:57:33.909Z,100268.03
2022-12-31T21:00:00.878Z,100225.81
2022-12-31T21:02:40.809Z,100223.63
2022-12-31T21:05:08.854Z,100255.19
2022-12-31T21:07:35.256Z,100246.16
2022-12-31T21:10:01.621Z,100275.28
2022-12-31T21:12:43.392Z,100238.13
2022-12-31T21:15:11.489Z,100260.16
2022-12-31T21:17:37.960Z,100226.91
2022-12-31T21:20:05.240Z,100257.97
2022-12-31T21:22:33.604Z,100255.97
2022-12-31T21:25:01.634Z,100262.13
2022-12-31T21:27:29.549Z,100259.84
2022-12-31T21:32:43.087Z,100235.31
2022-12-31T21:37:58.393Z,100255.81
2022-12-31T21:40:27.449Z,100285.56
2022-12-31T21:42:53.800Z,100226.47
2022-12-31T21:45:20.126Z,100255.97
2022-12-31T21:48:05.089Z,100273.03
2022-12-31T21:50:32.395Z,100267.09
2022-12-31T21:52:58.762Z,100264.53
2022-12-31T21:55:43.783Z,100268.66
2022-12-31T21:58:27.326Z,100291.34
2022-12-31T22:01:14.735Z,100318.22
2022-12-31T22:03:41.292Z,100274.22
2022-12-31T22:06:16.049Z,100297.31
2022-12-31T22:08:44.853Z,100249.00
2022-12-31T22:11:12.968Z,100313.31
2022-12-31T22:13:40.349Z,100316.19
2022-12-31T22:16:07.614Z,100273.06
2022-12-31T22:18:38.511Z,100250.75
2022-12-31T22:21:10.877Z,100312.84
2022-12-31T22:23:42.454Z,100316.16
2022-12-31T22:26:11.789Z,100321.66
2022-12-31T22:28:40.342Z,100336.78
2022-12-31T22:31:11.160Z,100320.06
2022-12-31T22:33:37.479Z,100297.69
2022-12-31T22:36:10.229Z,100343.91
2022-12-31T22:38:36.584Z,100209.31
2022-12-31T22:41:04.962Z,100328.81
2022-12-31T22:43:33.041Z,100316.63
2022-12-31T22:46:05.063Z,100304.94
2022-12-31T22:48:31.471Z,100283.47
2022-12-31T22:50:57.893Z,100316.13
2022-12-31T22:53:24.526Z,100314.34
2022-12-31T22:55:54.628Z,100304.47
2022-12-31T22:58:22.349Z,100301.63
2022-12-31T23:00:49.206Z,100337.13
2022-12-31T23:03:15.789Z,100280.97
2022-12-31T23:05:42.991Z,100339.75
2022-12-31T23:08:18.754Z,100311.16
2022-12-31T23:11:00.060Z,100339.38
2022-12-31T23:13:54.925Z,100339.69
2022-12-31T23:16:40.003Z,100312.56
2022-12-31T23:19:26.012Z,100341.09
2022-12-31T23:22:11.297Z,100312.50
2022-12-31T23:24:38.479Z,100340.16
2022-12-31T23:27:05.353Z,100322.59
2022-12-31T23:29:32.167Z,100308.28
2022-12-31T23:31:58.657Z,100304.00
2022-12-31T23:34:25.103Z,100321.19
2022-12-31T23:36:51.462Z,100336.69
2022-12-31T23:39:17.951Z,100348.91
2022-12-31T23:41:44.313Z,100319.63
2022-12-31T23:44:14.336Z,100340.00
2022-12-31T23:46:41.026Z,100350.88
2022-12-31T23:49:07.589Z,100355.88
2022-12-31T23:51:35.851Z,100349.03
2022-12-31T23:54:05.663Z,100334.00
2022-12-31T23:56:32.022Z,100376.72
2022-12-31T23:58:59.306Z,100372.00
